Time;durP1;ratioP1;P1;durP2;ratioP2;P2;SDS_P1;SDS_P2;PMS_P1;PMS_P2;Temp;Humidity;BMP_temperature;BMP_pressure;BME280_temperature;BME280_humidity;BME280_pressure;Samples;Min_cycle;Max_cycle;Signal;HPM_P1;HPM_P2
2024/01/20 00:00:15;;;;;;;22.33;10.48;;;;;;;-1.65;96.66;100190.00;5034367;28;20037;-82
2024/01/20 00:02:40;;;;;;;22.58;11.98;;;;;;;-1.70;96.05;100170.38;5034831;28;20087;-82
2024/01/20 00:05:06;;;;;;;21.52;11.20;;;;;;;-1.66;96.25;100185.75;5034511;28;20025;-81
2024/01/20 00:07:32;;;;;;;25.98;11.32;;;;;;;-1.87;96.18;100144.66;5034598;28;20021;-81
2024/01/20 00:09:58;;;;;;;24.42;10.43;;;;;;;-1.78;96.60;100168.56;5034130;28;20372;-82
2024/01/20 00:12:23;;;;;;;25.85;10.57;;;;;;;-1.91;95.78;100148.84;5033477;28;20025;-82
2024/01/20 00:14:49;;;;;;;20.38;8.90;;;;;;;-1.62;96.44;100199.41;5034681;28;20108;-81
2024/01/20 00:17:14;;;;;;;20.75;9.63;;;;;;;-2.01;96.43;100131.72;5034375;28;20108;-82
2024/01/20 00:19:39;;;;;;;20.48;8.60;;;;;;;-1.67;96.54;100189.16;5034361;28;20104;-82
2024/01/20 00:22:05;;;;;;;17.40;9.05;;;;;;;-1.90;96.46;100155.66;5034621;28;20029;-81
2024/01/20 00:24:30;;;;;;;18.00;8.93;;;;;;;-1.76;96.38;100181.38;5033997;28;20108;-81
2024/01/20 00:26:55;;;;;;;20.45;8.88;;;;;;;-1.89;96.34;100146.34;5034330;28;20022;-81
2024/01/20 00:29:21;;;;;;;16.60;8.57;;;;;;;-1.86;95.97;100156.56;5033920;28;20441;-81
2024/01/20 00:31:47;;;;;;;21.08;9.20;;;;;;;-2.17;95.83;100110.25;5034419;28;20364;-81
2024/01/20 00:34:12;;;;;;;18.85;8.68;;;;;;;-1.64;96.25;100189.19;5034013;28;20021;-81
2024/01/20 00:36:38;;;;;;;17.20;7.70;;;;;;;-2.24;95.85;100089.75;5034420;28;20410;-81
2024/01/20 00:39:04;;;;;;;16.83;7.90;;;;;;;-1.76;95.83;100178.84;5033902;28;20032;-81
2024/01/20 00:41:30;;;;;;;19.35;7.57;;;;;;;-1.70;95.81;100180.59;5033787;28;20453;-81
2024/01/20 00:43:55;;;;;;;20.77;7.75;;;;;;;-1.80;95.48;100174.53;5016050;28;20025;-82
2024/01/20 00:46:21;;;;;;;18.60;8.23;;;;;;;-1.90;96.14;100157.38;5033668;28;20021;-82
2024/01/20 00:48:46;;;;;;;15.18;6.85;;;;;;;-1.72;95.83;100184.84;5033705;28;20030;-81
2024/01/20 00:51:12;;;;;;;16.50;7.65;;;;;;;-1.77;95.85;100172.88;5033687;28;20076;-81
2024/01/20 00:53:37;;;;;;;20.23;8.00;;;;;;;-1.82;95.54;100173.63;5015865;28;20416;-82
2024/01/20 00:56:03;;;;;;;21.98;8.95;;;;;;;-1.79;95.54;100181.34;5033266;28;20365;-82
2024/01/20 00:58:28;;;;;;;19.10;7.78;;;;;;;-1.92;95.42;100156.50;5033355;28;20021;-82
2024/01/20 01:00:54;;;;;;;15.80;7.47;;;;;;;-1.93;96.08;100165.00;5033454;28;20037;-81
2024/01/20 01:03:20;;;;;;;22.67;7.97;;;;;;;-1.78;95.73;100183.03;5033057;28;20507;-82
2024/01/20 01:05:45;;;;;;;17.23;8.60;;;;;;;-1.79;95.72;100192.41;5033567;28;20453;-82
2024/01/20 01:08:11;;;;;;;11.70;7.20;;;;;;;-1.82;95.72;100189.81;5033820;28;20453;-82
2024/01/20 01:10:36;;;;;;;17.80;7.32;;;;;;;-1.78;95.72;100198.38;5015437;28;20025;-82
2024/01/20 01:13:02;;;;;;;15.43;7.68;;;;;;;-1.80;95.38;100194.94;5015660;28;20523;-82
2024/01/20 01:15:29;;;;;;;19.80;7.85;;;;;;;-1.73;95.54;100224.81;5032860;28;20120;-81
2024/01/20 01:17:54;;;;;;;14.50;6.75;;;;;;;-2.12;95.41;100159.66;5033344;28;20021;-81
2024/01/20 01:20:20;;;;;;;16.92;7.65;;;;;;;-1.85;96.00;100210.22;5032919;28;20041;-81
2024/01/20 01:22:45;;;;;;;19.70;7.57;;;;;;;-1.91;95.60;100205.00;5032948;28;20441;-81
2024/01/20 01:25:11;;;;;;;15.50;7.13;;;;;;;-1.82;95.57;100217.03;5015528;28;20021;-82
2024/01/20 01:27:36;;;;;;;16.55;7.05;;;;;;;-2.23;95.68;100143.38;5032940;28;20021;-81
2024/01/20 01:30:02;;;;;;;16.10;7.28;;;;;;;-1.95;95.42;100194.75;5032981;28;20021;-81
2024/01/20 01:32:27;;;;;;;17.35;7.30;;;;;;;-1.82;95.30;100219.59;5032872;28;20456;-82
2024/01/20 01:34:53;;;;;;;16.25;7.60;;;;;;;-1.80;95.60;100218.78;5033086;28;20030;-82
2024/01/20 01:37:18;;;;;;;14.40;7.47;;;;;;;-1.88;95.45;100217.84;5015127;28;20017;-82
2024/01/20 01:39:44;;;;;;;17.27;7.63;;;;;;;-1.89;95.66;100218.69;5033015;28;20025;-83
2024/01/20 01:42:09;;;;;;;18.08;7.80;;;;;;;-2.14;95.40;100179.22;5033414;28;20112;-82
2024/01/20 01:44:35;;;;;;;17.05;6.78;;;;;;;-2.02;95.67;100192.13;5015048;28;20014;-82
2024/01/20 01:47:00;;;;;;;14.65;6.85;;;;;;;-1.86;95.22;100212.72;5014992;28;20048;-82
2024/01/20 01:49:26;;;;;;;17.08;7.40;;;;;;;-1.99;95.12;100187.88;5014462;28;20029;-82
2024/01/20 01:51:52;;;;;;;17.00;7.50;;;;;;;-1.77;95.16;100220.50;5014808;28;20036;-82
2024/01/20 01:54:19;;;;;;;15.77;8.00;;;;;;;-1.88;95.12;100201.66;5032999;28;20479;-82
2024/01/20 01:56:47;;;;;;;21.80;7.43;;;;;;;-1.82;94.76;100219.59;5032863;28;20449;-82
2024/01/20 01:59:13;;;;;;;19.95;7.15;;;;;;;-1.98;94.54;100195.59;5032775;28;20186;-82
2024/01/20 02:01:38;;;;;;;13.40;6.95;;;;;;;-1.88;94.64;100219.53;5032825;28;20112;-82
2024/01/20 02:04:03;;;;;;;19.35;7.50;;;;;;;-1.91;94.53;100225.44;5015091;28;20029;-82
2024/01/20 02:06:30;;;;;;;14.55;6.70;;;;;;;-1.90;94.58;100224.59;5032546;28;20108;-82
2024/01/20 02:08:55;;;;;;;15.13;6.50;;;;;;;-2.03;95.09;100195.50;5014890;28;20024;-82
2024/01/20 02:11:21;;;;;;;12.07;7.53;;;;;;;-2.20;94.25;100168.06;5014594;28;20372;-82
2024/01/20 02:13:46;;;;;;;16.83;6.18;;;;;;;-1.96;94.44;100213.47;5032418;28;20175;-82
2024/01/20 02:16:12;;;;;;;15.57;7.25;;;;;;;-2.05;94.29;100196.34;5032407;28;20025;-82
2024/01/20 02:18:37;;;;;;;13.13;7.45;;;;;;;-1.96;94.56;100223.69;5032454;28;20068;-82
2024/01/20 02:21:06;;;;;;;11.75;7.03;;;;;;;-1.84;94.77;100234.91;5032708;28;20032;-82
2024/01/20 02:23:38;;;;;;;15.30;6.53;;;;;;;-1.83;94.40;100241.72;5032473;28;20342;-82
2024/01/20 02:26:04;;;;;;;15.05;7.07;;;;;;;-1.97;94.42;100212.63;5014869;28;20029;-82
2024/01/20 02:28:29;;;;;;;13.13;6.68;;;;;;;-1.98;94.27;100215.13;5014667;28;20035;-82
2024/01/20 02:30:54;;;;;;;12.45;6.35;;;;;;;-2.05;94.46;100202.28;5032585;28;20389;-82
2024/01/20 02:33:20;;;;;;;17.33;6.47;;;;;;;-1.97;94.25;100212.63;5032941;28;20361;-82
2024/01/20 02:35:45;;;;;;;17.58;6.28;;;;;;;-2.22;93.86;100179.94;5035688;28;20025;-82
2024/01/20 02:38:11;;;;;;;12.32;6.63;;;;;;;-2.02;93.96;100217.66;5036519;28;20079;-82
2024/01/20 02:40:36;;;;;;;12.00;6.10;;;;;;;-2.18;94.17;100192.75;5036315;28;20025;-82
2024/01/20 02:43:01;;;;;;;12.98;5.95;;;;;;;-2.30;94.27;100180.69;5036538;28;20461;-82
2024/01/20 02:45:27;;;;;;;12.65;6.43;;;;;;;-2.11;94.17;100211.56;5018268;28;20052;-82
2024/01/20 02:47:54;;;;;;;15.30;5.75;;;;;;;-2.18;93.95;100197.00;5036070;28;20106;-82
2024/01/20 02:50:20;;;;;;;15.95;6.80;;;;;;;-1.90;94.63;100246.72;5035908;28;20030;-82
2024/01/20 02:52:45;;;;;;;15.15;6.47;;;;;;;-2.02;94.41;100243.19;5035603;28;20025;-82
2024/01/20 02:55:11;;;;;;;17.23;6.97;;;;;;;-2.12;94.18;100215.81;5035927;28;20025;-82
2024/01/20 02:57:36;;;;;;;17.38;6.28;;;;;;;-1.99;94.23;100242.34;5035848;28;20075;-82
2024/01/20 03:00:04;;;;;;;15.45;6.57;;;;;;;-2.15;94.34;100220.88;5035372;28;20048;-83
2024/01/20 03:02:29;;;;;;;12.70;6.32;;;;;;;-2.02;94.18;100240.63;5035745;28;20064;-83
2024/01/20 03:04:59;;;;;;;13.57;6.47;;;;;;;-2.06;93.88;100232.91;5035807;28;20045;-82
2024/01/20 03:07:24;;;;;;;15.88;6.43;;;;;;;-2.02;94.42;100252.53;5035814;28;20104;-82
2024/01/20 03:09:49;;;;;;;13.95;6.05;;;;;;;-2.02;93.80;100255.94;5017910;28;20112;-82
2024/01/20 03:12:15;;;;;;;14.32;6.57;;;;;;;-2.01;94.29;100250.00;5036206;28;20090;-82
2024/01/20 03:14:40;;;;;;;12.10;5.13;;;;;;;-2.01;93.77;100256.81;5017829;28;20088;-82
2024/01/20 03:17:06;;;;;;;13.93;6.15;;;;;;;-2.14;93.71;100239.59;5035703;28;20026;-82
2024/01/20 03:19:31;;;;;;;14.82;6.78;;;;;;;-2.09;93.91;100251.59;5001103;28;20040;-82
2024/01/20 03:21:57;;;;;;;8.95;5.18;;;;;;;-2.11;93.49;100244.72;5035533;28;20032;-82
2024/01/20 03:24:22;;;;;;;13.23;5.97;;;;;;;-2.18;93.84;100227.63;5035729;28;20033;-82
2024/01/20 03:26:49;;;;;;;10.63;5.57;;;;;;;-2.00;93.58;100266.16;5017653;28;20033;-82
2024/01/20 03:29:15;;;;;;;13.95;5.93;;;;;;;-2.20;93.79;100232.69;5035483;28;20033;-82
2024/01/20 03:31:41;;;;;;;12.10;6.15;;;;;;;-2.02;93.35;100258.50;5035259;28;20104;-82
2024/01/20 03:34:06;;;;;;;16.25;6.55;;;;;;;-2.14;93.54;100239.59;5035651;28;20026;-82
2024/01/20 03:36:32;;;;;;;21.52;6.55;;;;;;;-2.22;93.19;100229.28;5035393;28;20482;-83
2024/01/20 03:38:57;;;;;;;12.50;5.43;;;;;;;-2.04;93.16;100272.06;5035071;28;20029;-82
2024/01/20 03:41:22;;;;;;;12.13;5.50;;;;;;;-2.05;92.74;100271.22;5035141;28;20112;-82
2024/01/20 03:43:48;;;;;;;14.68;6.60;;;;;;;-1.97;92.80;100290.88;5035028;28;20026;-82
2024/01/20 03:46:17;;;;;;;12.82;6.10;;;;;;;-1.89;93.33;100308.03;5035181;28;20488;-82
2024/01/20 03:48:42;;;;;;;13.73;5.45;;;;;;;-2.16;93.30;100252.31;5034953;28;20040;-82
2024/01/20 03:51:09;;;;;;;15.25;6.45;;;;;;;-2.05;93.02;100276.31;5034908;28;20370;-83
2024/01/20 03:53:34;;;;;;;10.85;5.38;;;;;;;-2.04;92.97;100280.56;5034858;28;20029;-82
2024/01/20 03:56:01;;;;;;;11.88;5.22;;;;;;;-2.02;92.85;100288.28;5017300;28;20080;-82
2024/01/20 03:58:26;;;;;;;12.68;5.50;;;;;;;-1.98;92.65;100299.38;5034848;28;20053;-82
2024/01/20 04:00:52;;;;;;;9.75;5.50;;;;;;;-1.99;92.12;100288.28;5017068;28;20076;-82
2024/01/20 04:03:17;;;;;;;11.68;6.40;;;;;;;-1.97;92.81;100301.09;5034444;28;20360;-83
2024/01/20 04:05:43;;;;;;;12.15;5.30;;;;;;;-1.99;92.47;100306.16;5016802;28;20028;-83
2024/01/20 04:08:08;;;;;;;11.20;5.28;;;;;;;-2.04;92.40;100292.47;5034849;28;20468;-82
2024/01/20 04:10:34;;;;;;;12.02;5.50;;;;;;;-1.93;92.47;100313.06;5034464;28;20125;-82
2024/01/20 04:12:59;;;;;;;15.80;5.28;;;;;;;-2.05;92.24;100299.28;5034614;28;20065;-82
2024/01/20 04:15:25;;;;;;;11.68;4.90;;;;;;;-1.96;92.36;100330.91;5016906;28;20163;-83
2024/01/20 04:17:52;;;;;;;12.60;5.30;;;;;;;-2.07;92.41;100311.16;5034112;28;20021;-83
2024/01/20 04:20:18;;;;;;;14.32;5.90;;;;;;;-2.45;92.01;100251.03;5034717;28;20338;-82
2024/01/20 04:22:43;;;;;;;12.65;5.60;;;;;;;-2.05;92.20;100321.41;5034546;28;20033;-82
2024/01/20 04:25:08;;;;;;;14.18;5.85;;;;;;;-2.29;92.10;100275.94;5034477;28;20488;-82
2024/01/20 04:27:40;;;;;;;12.18;5.80;;;;;;;-2.09;91.61;100302.63;5016275;28;20024;-82
2024/01/20 04:30:09;;;;;;;13.70;5.25;;;;;;;-2.07;91.72;100323.06;5034190;28;20107;-82
2024/01/20 04:32:35;;;;;;;15.45;5.43;;;;;;;-2.09;92.04;100325.59;5033852;28;20082;-82
2024/01/20 04:35:00;;;;;;;10.30;5.07;;;;;;;-2.03;92.24;100343.53;5016359;28;20112;-82
2024/01/20 04:37:26;;;;;;;16.15;5.00;;;;;;;-2.26;91.52;100293.84;5016166;28;20443;-82
2024/01/20 04:39:51;;;;;;;8.98;4.47;;;;;;;-2.12;91.91;100325.53;5033562;28;20028;-82
2024/01/20 04:42:16;;;;;;;8.93;5.00;;;;;;;-2.27;91.79;100302.34;5033832;28;20100;-82
2024/01/20 04:44:42;;;;;;;11.80;5.38;;;;;;;-1.93;92.29;100362.44;5033666;28;20036;-83
2024/01/20 04:47:07;;;;;;;11.00;5.88;;;;;;;-1.97;92.48;100344.50;5033730;28;20022;-82
2024/01/20 04:49:33;;;;;;;15.77;5.35;;;;;;;-1.91;92.08;100342.88;5015995;28;20025;-83
2024/01/20 04:52:01;;;;;;;8.27;4.93;;;;;;;-1.84;92.50;100342.13;5015833;28;20071;-83
2024/01/20 04:54:27;;;;;;;9.82;5.18;;;;;;;-1.93;92.43;100326.69;5015831;28;20033;-83
2024/01/20 04:56:53;;;;;;;12.65;5.53;;;;;;;-1.67;92.38;100360.25;5033164;28;20057;-83
2024/01/20 04:59:18;;;;;;;15.88;5.45;;;;;;;-1.61;92.49;100357.78;5034200;28;20524;-83
2024/01/20 05:01:45;;;;;;;9.90;4.95;;;;;;;-1.56;91.77;100363.84;5015616;28;20081;-83
2024/01/20 05:04:11;;;;;;;14.23;5.70;;;;;;;-1.52;91.95;100355.38;5033781;28;20083;-83
2024/01/20 05:06:36;;;;;;;14.38;4.95;;;;;;;-1.63;91.02;100327.97;5015780;28;20041;-83
2024/01/20 05:09:02;;;;;;;11.77;6.05;;;;;;;-1.72;90.92;100310.81;5034046;28;20017;-83
2024/01/20 05:11:28;;;;;;;11.52;5.25;;;;;;;-1.55;90.83;100331.47;4991802;28;20030;-83
2024/01/20 05:13:53;;;;;;;11.50;4.97;;;;;;;-1.44;90.34;100357.16;4974998;28;20034;-83
2024/01/20 05:16:19;;;;;;;8.02;4.80;;;;;;;-1.55;90.21;100349.34;4975289;28;20069;-83
2024/01/20 05:18:44;;;;;;;13.18;5.38;;;;;;;-1.65;90.07;100348.34;4991446;28;20113;-83
2024/01/20 05:21:14;;;;;;;9.63;5.07;;;;;;;-1.80;89.86;100322.63;4975407;28;20034;-83
2024/01/20 05:23:39;;;;;;;9.07;4.75;;;;;;;-1.70;89.60;100350.00;4991484;28;20100;-83
2024/01/20 05:26:05;;;;;;;9.90;5.47;;;;;;;-1.90;89.99;100326.72;4991884;28;20030;-83
2024/01/20 05:28:30;;;;;;;13.38;5.55;;;;;;;-1.69;90.35;100355.94;4991853;28;20118;-83
2024/01/20 05:30:55;;;;;;;11.60;5.55;;;;;;;-1.67;89.80;100374.72;4975128;28;20100;-83
2024/01/20 05:33:21;;;;;;;9.23;5.00;;;;;;;-1.64;89.66;100364.56;4991661;28;20027;-83
2024/01/20 05:35:46;;;;;;;8.00;4.57;;;;;;;-1.70;89.74;100352.53;4991544;28;20131;-83
2024/01/20 05:38:11;;;;;;;10.32;5.15;;;;;;;-1.76;89.56;100358.44;4991791;28;20114;-83
2024/01/20 05:40:37;;;;;;;8.65;5.40;;;;;;;-1.70;89.58;100362.75;4975297;28;20137;-82
2024/01/20 05:43:04;;;;;;;12.70;6.30;;;;;;;-2.04;89.10;100318.00;4975074;28;20034;-83
2024/01/20 05:45:30;;;;;;;9.65;4.63;;;;;;;-2.12;88.90;100307.69;4975264;28;20032;-83
2024/01/20 05:47:55;;;;;;;10.27;4.80;;;;;;;-2.02;89.64;100331.66;4995322;28;20030;-83
2024/01/20 05:50:21;;;;;;;11.80;5.82;;;;;;;-1.78;89.24;100383.06;5033858;28;20032;-84
2024/01/20 05:52:46;;;;;;;11.63;5.38;;;;;;;-1.72;89.37;100389.13;5033829;28;20052;-84
2024/01/20 05:55:11;;;;;;;15.20;6.18;;;;;;;-1.85;88.93;100378.72;5016324;28;20048;-84
2024/01/20 05:57:37;;;;;;;12.98;5.90;;;;;;;-1.87;89.05;100387.19;5033724;28;20022;-84
2024/01/20 06:00:03;;;;;;;11.00;5.60;;;;;;;-1.81;89.04;100389.84;5037426;28;20041;-84
2024/01/20 06:02:29;;;;;;;10.30;5.45;;;;;;;-1.85;89.00;100380.44;5030622;28;20018;-84
2024/01/20 06:04:54;;;;;;;10.18;5.35;;;;;;;-1.95;88.92;100381.97;5047321;28;20084;-83
2024/01/20 06:07:19;;;;;;;13.02;5.22;;;;;;;-1.90;88.99;100387.13;5044214;28;20052;-84
2024/01/20 06:09:45;;;;;;;8.95;5.32;;;;;;;-2.10;88.84;100354.50;5036609;28;20036;-84
2024/01/20 06:12:12;;;;;;;13.20;5.57;;;;;;;-2.05;88.88;100375.84;5019737;28;20025;-84
2024/01/20 06:14:37;;;;;;;11.43;5.63;;;;;;;-1.93;88.84;100407.53;5019173;28;20033;-83
2024/01/20 06:17:03;;;;;;;15.52;5.93;;;;;;;-2.04;88.87;100395.44;5019302;28;20017;-83
2024/01/20 06:19:28;;;;;;;12.85;6.15;;;;;;;-2.06;89.50;100394.56;5036844;28;20032;-83
2024/01/20 06:21:54;;;;;;;16.73;6.65;;;;;;;-1.89;89.18;100425.47;5036960;28;20022;-83
2024/01/20 06:24:19;;;;;;;12.02;5.63;;;;;;;-2.34;88.75;100354.09;5018852;28;20409;-83
2024/01/20 06:26:45;;;;;;;12.13;5.63;;;;;;;-2.18;89.56;100365.44;5018914;28;20021;-83
2024/01/20 06:29:11;;;;;;;11.50;6.00;;;;;;;-2.11;89.17;100380.00;5036900;28;20107;-83
2024/01/20 06:31:37;;;;;;;9.65;5.35;;;;;;;-2.17;88.78;100364.59;5018880;28;20055;-83
2024/01/20 06:34:03;;;;;;;11.43;6.05;;;;;;;-1.99;89.39;100390.41;5018776;28;20116;-83
2024/01/20 06:36:28;;;;;;;11.63;6.15;;;;;;;-2.22;89.25;100356.00;5036570;28;20029;-84
2024/01/20 06:38:54;;;;;;;12.27;5.28;;;;;;;-1.78;89.29;100413.72;5036434;28;20072;-83
2024/01/20 06:41:20;;;;;;;13.95;5.97;;;;;;;-1.75;89.23;100415.47;5036765;28;20025;-84
2024/01/20 06:43:45;;;;;;;9.98;6.00;;;;;;;-2.32;88.75;100326.91;5018475;28;20029;-84
2024/01/20 06:46:11;;;;;;;14.23;6.22;;;;;;;-1.80;88.45;100420.50;5036749;28;20091;-83
2024/01/20 06:48:36;;;;;;;13.30;6.43;;;;;;;-1.91;88.22;100398.19;5036643;28;20038;-83
2024/01/20 06:51:06;;;;;;;10.68;5.55;;;;;;;-1.83;88.26;100425.56;5036334;28;20341;-83
2024/01/20 06:53:32;;;;;;;12.75;5.90;;;;;;;-1.87;88.34;100426.34;5036599;28;20094;-83
2024/01/20 06:55:58;;;;;;;12.25;5.68;;;;;;;-1.88;88.16;100426.34;5036078;28;20505;-83
2024/01/20 06:58:24;;;;;;;12.18;5.55;;;;;;;-1.87;88.27;100428.91;5036423;28;20029;-84
2024/01/20 07:00:50;;;;;;;8.23;5.13;;;;;;;-2.04;88.32;100394.59;5017960;28;20049;-83
2024/01/20 07:03:16;;;;;;;15.45;6.10;;;;;;;-1.96;87.84;100416.00;5036698;28;20100;-83
2024/01/20 07:05:41;;;;;;;12.73;6.47;;;;;;;-1.77;88.13;100446.09;5035972;28;20026;-83
2024/01/20 07:08:07;;;;;;;12.52;5.82;;;;;;;-1.87;87.73;100428.91;5019325;28;20030;-83
2024/01/20 07:10:32;;;;;;;9.75;5.43;;;;;;;-1.77;87.96;100432.44;5017808;28;20037;-83
2024/01/20 07:12:58;;;;;;;15.93;6.88;;;;;;;-2.07;87.82;100380.06;5035646;28;20040;-84
2024/01/20 07:15:24;;;;;;;17.10;7.10;;;;;;;-1.76;87.57;100427.38;5035643;28;20031;-84
2024/01/20 07:17:49;;;;;;;12.70;6.53;;;;;;;-2.06;87.52;100374.16;5035396;28;20061;-84
2024/01/20 07:20:15;;;;;;;12.07;6.25;;;;;;;-1.97;87.19;100359.81;5017157;28;20116;-84
2024/01/20 07:22:41;;;;;;;15.10;5.97;;;;;;;-1.66;86.96;100425.81;5017562;28;20031;-84
2024/01/20 07:25:08;;;;;;;11.23;5.75;;;;;;;-1.49;86.79;100417.56;5017570;28;20025;-84
2024/01/20 07:27:33;;;;;;;11.43;5.18;;;;;;;-1.45;86.82;100414.22;5035481;28;20371;-84
2024/01/20 07:29:59;;;;;;;10.77;5.45;;;;;;;-1.24;87.06;100424.72;5034913;28;20033;-84
2024/01/20 07:32:25;;;;;;;9.80;5.72;;;;;;;-1.32;86.09;100377.75;5016971;28;20022;-84
2024/01/20 07:34:50;;;;;;;15.05;5.45;;;;;;;-1.05;85.56;100428.41;5017305;28;20021;-84
2024/01/20 07:37:16;;;;;;;13.00;6.07;;;;;;;-1.02;85.33;100415.63;5017296;28;20341;-84
2024/01/20 07:39:41;;;;;;;10.27;5.65;;;;;;;-0.93;85.24;100455.78;5034858;28;20024;-84
2024/01/20 07:42:06;;;;;;;10.85;5.60;;;;;;;-1.14;84.98;100406.09;5017409;28;20371;-84
2024/01/20 07:44:32;;;;;;;11.13;6.22;;;;;;;-0.97;84.47;100447.22;4992997;28;20096;-84
2024/01/20 07:46:58;;;;;;;17.27;6.43;;;;;;;-0.88;84.83;100451.63;4953894;29;20110;-84
2024/01/20 07:49:23;;;;;;;12.80;6.50;;;;;;;-1.01;84.21;100410.56;4953949;29;20042;-84
2024/01/20 07:51:49;;;;;;;11.63;5.90;;;;;;;-0.74;84.31;100432.19;4954011;29;20156;-84
2024/01/20 07:54:16;;;;;;;12.23;5.50;;;;;;;-0.36;83.78;100470.13;4954056;29;20046;-84
2024/01/20 07:56:41;;;;;;;11.13;5.90;;;;;;;-0.36;83.07;100436.84;4953840;29;20030;-84
2024/01/20 07:59:07;;;;;;;12.75;6.07;;;;;;;-0.21;83.13;100441.25;4954242;29;20043;-84
2024/01/20 08:01:32;;;;;;;12.60;5.93;;;;;;;-0.10;81.80;100427.72;4936155;29;20415;-85
2024/01/20 08:03:58;;;;;;;11.82;6.45;;;;;;;0.14;81.43;100469.78;4934784;29;20031;-85
2024/01/20 08:06:27;;;;;;;13.73;7.00;;;;;;;0.16;80.85;100481.72;4935880;29;20027;-84
2024/01/20 08:08:52;;;;;;;11.32;6.82;;;;;;;-0.16;80.77;100414.03;4935309;29;20507;-84
2024/01/20 08:11:18;;;;;;;14.88;6.50;;;;;;;-0.24;80.31;100420.78;4935082;29;20036;-84
2024/01/20 08:13:43;;;;;;;12.18;6.53;;;;;;;0.02;80.23;100492.72;4935159;29;20028;-84
2024/01/20 08:16:09;;;;;;;11.93;6.57;;;;;;;-0.55;80.35;100426.44;4963995;28;20130;-84
2024/01/20 08:18:34;;;;;;;14.45;7.25;;;;;;;-0.18;80.72;100493.34;4974413;28;20035;-84
2024/01/20 08:21:05;;;;;;;12.18;6.60;;;;;;;-0.20;80.93;100502.75;4973095;28;20031;-83
2024/01/20 08:23:30;;;;;;;11.85;6.97;;;;;;;-0.38;81.19;100487.16;4978298;28;20058;-84
2024/01/20 08:25:58;;;;;;;9.95;6.40;;;;;;;-0.51;81.39;100487.03;5014563;28;20468;-84
2024/01/20 08:28:23;;;;;;;15.13;6.68;;;;;;;-0.58;81.36;100490.38;5015558;28;20157;-84
2024/01/20 08:30:48;;;;;;;18.33;8.23;;;;;;;-0.62;81.56;100469.84;5014268;28;20029;-84
2024/01/20 08:33:14;;;;;;;13.52;6.50;;;;;;;-0.74;81.78;100468.00;5014128;28;20017;-84
2024/01/20 08:35:39;;;;;;;14.70;7.15;;;;;;;-0.53;82.12;100493.81;5014456;28;20025;-83
2024/01/20 08:38:05;;;;;;;12.98;6.78;;;;;;;-0.80;82.26;100439.75;5014409;28;20405;-84
2024/01/20 08:40:31;;;;;;;12.35;7.10;;;;;;;-0.35;82.15;100495.72;5013880;28;20046;-84
2024/01/20 08:42:57;;;;;;;12.52;7.07;;;;;;;-0.27;82.51;100504.34;5014350;28;20021;-84
2024/01/20 08:45:22;;;;;;;14.52;7.60;;;;;;;-0.17;82.51;100507.00;4972941;28;20072;-84
2024/01/20 08:47:48;;;;;;;16.23;7.80;;;;;;;-0.11;82.82;100501.97;4972624;28;20046;-84
2024/01/20 08:50:13;;;;;;;17.15;8.60;;;;;;;-0.11;82.64;100496.84;4972395;28;20035;-84
2024/01/20 08:52:39;;;;;;;15.07;7.43;;;;;;;0.09;82.70;100515.84;4956032;28;20031;-84
2024/01/20 08:55:05;;;;;;;16.85;8.43;;;;;;;0.12;82.42;100522.69;4972568;28;20035;-84
2024/01/20 08:57:32;;;;;;;12.75;7.78;;;;;;;0.21;82.24;100518.53;4972473;28;20465;-84
2024/01/20 08:59:57;;;;;;;17.85;9.23;;;;;;;-0.21;82.67;100456.63;4977988;28;20085;-83
2024/01/20 09:02:23;;;;;;;13.25;7.05;;;;;;;0.15;82.68;100513.31;4992079;28;20066;-82
2024/01/20 09:04:48;;;;;;;19.25;10.77;;;;;;;-0.07;82.34;100484.09;4991820;28;20026;-82
2024/01/20 09:07:13;;;;;;;15.55;9.02;;;;;;;-0.15;82.85;100483.16;4975912;28;20030;-82
2024/01/20 09:09:39;;;;;;;35.65;24.42;;;;;;;-0.25;83.23;100478.78;4992199;28;20476;-81
2024/01/20 09:12:05;;;;;;;22.40;13.52;;;;;;;-0.41;83.52;100470.09;4991828;28;20023;-82
2024/01/20 09:14:30;;;;;;;18.40;10.43;;;;;;;-0.09;83.78;100534.41;4992548;28;20049;-82
2024/01/20 09:16:56;;;;;;;96.32;55.38;;;;;;;-0.23;83.50;100505.25;4991203;28;20538;-82
2024/01/20 09:19:21;;;;;;;108.80;58.25;;;;;;;-0.15;84.22;100530.94;4991478;28;20030;-82
2024/01/20 09:21:47;;;;;;;144.45;79.63;;;;;;;-0.41;84.17;100474.34;4952255;29;20127;-82
2024/01/20 09:24:12;;;;;;;52.30;28.05;;;;;;;-0.18;84.22;100518.09;4952772;29;20494;-81
2024/01/20 09:26:37;;;;;;;194.13;104.90;;;;;;;-0.12;84.45;100544.66;4952371;29;20486;-82
2024/01/20 09:29:03;;;;;;;160.13;87.15;;;;;;;-0.32;84.55;100505.16;4952290;29;20022;-81
2024/01/20 09:31:29;;;;;;;386.90;218.77;;;;;;;-0.04;84.57;100540.47;4936386;29;20262;-82
2024/01/20 09:33:54;;;;;;;88.22;40.88;;;;;;;-0.21;84.37;100508.72;4952271;29;20035;-82
2024/01/20 09:36:19;;;;;;;67.55;33.00;;;;;;;-0.38;84.50;100466.69;4952814;29;20170;-82
2024/01/20 09:38:45;;;;;;;214.07;101.10;;;;;;;-0.06;84.76;100526.78;4952880;29;20027;-82
2024/01/20 09:41:11;;;;;;;135.02;69.13;;;;;;;-0.07;84.60;100526.78;4952551;29;20383;-82
2024/01/20 09:43:39;;;;;;;186.70;106.65;;;;;;;-0.03;84.72;100528.53;4952351;28;20471;-82
2024/01/20 09:46:04;;;;;;;116.18;61.20;;;;;;;-0.37;84.62;100465.88;4951919;29;20031;-83
2024/01/20 09:48:30;;;;;;;47.33;28.38;;;;;;;-0.09;85.02;100513.06;4951638;29;20379;-83
2024/01/20 09:50:57;;;;;;;23.33;13.45;;;;;;;-0.26;85.10;100493.25;4950803;29;20039;-82
2024/01/20 09:53:22;;;;;;;23.50;15.23;;;;;;;-0.34;84.91;100471.88;4996533;28;20038;-82
2024/01/20 09:55:48;;;;;;;22.85;11.52;;;;;;;-0.09;85.25;100503.69;4994225;28;20075;-82
2024/01/20 09:58:16;;;;;;;14.23;8.38;;;;;;;-0.03;85.09;100519.13;5011789;28;20034;-82
2024/01/20 10:00:42;;;;;;;13.98;8.82;;;;;;;-0.07;84.84;100489.22;5006547;28;20048;-82
2024/01/20 10:03:09;;;;;;;25.73;17.05;;;;;;;-0.24;84.60;100475.38;5032225;28;20045;-82
2024/01/20 10:05:35;;;;;;;19.35;13.02;;;;;;;-0.10;84.48;100483.19;5032701;28;20467;-82
2024/01/20 10:08:02;;;;;;;17.55;9.07;;;;;;;-0.03;84.15;100496.09;5014817;28;20057;-83
2024/01/20 10:10:27;;;;;;;28.55;17.73;;;;;;;-0.21;84.38;100470.31;5032522;28;20067;-83
2024/01/20 10:12:54;;;;;;;25.02;15.75;;;;;;;-0.29;83.94;100472.78;5034602;28;20029;-84
2024/01/20 10:15:27;;;;;;;26.23;15.82;;;;;;;-0.19;84.04;100493.34;5016533;28;20029;-83
2024/01/20 10:17:54;;;;;;;25.75;14.40;;;;;;;-0.23;83.13;100486.47;5032607;28;20041;-84
2024/01/20 10:20:32;;;;;;;60.78;30.58;;;;;;;-0.28;83.85;100482.16;5034328;28;20094;-83
2024/01/20 10:23:01;;;;;;;44.72;23.65;;;;;;;-0.16;83.72;100511.31;5032744;28;20188;-83
2024/01/20 10:25:26;;;;;;;66.88;33.53;;;;;;;-0.08;83.67;100525.91;5034041;28;20036;-84
2024/01/20 10:27:51;;;;;;;19.50;11.25;;;;;;;-0.16;83.67;100508.75;5032420;28;20368;-83
2024/01/20 10:30:20;;;;;;;16.75;9.40;;;;;;;-0.31;83.23;100483.84;5032654;28;20125;-83
2024/01/20 10:32:46;;;;;;;19.98;13.40;;;;;;;-0.01;84.15;100531.94;5032444;28;20392;-83
2024/01/20 10:35:12;;;;;;;37.05;22.73;;;;;;;-0.01;83.81;100540.47;5032219;28;20029;-83
2024/01/20 10:37:42;;;;;;;20.35;11.50;;;;;;;-0.19;83.86;100496.75;5032550;28;20055;-83
2024/01/20 10:40:13;;;;;;;19.00;10.55;;;;;;;-0.19;83.93;100491.66;5032440;28;20365;-83
2024/01/20 10:42:46;;;;;;;17.50;11.48;;;;;;;-0.36;84.25;100460.75;5014826;28;20036;-83
2024/01/20 10:45:19;;;;;;;12.95;8.02;;;;;;;0.03;83.66;100527.72;5032372;28;20029;-83
2024/01/20 10:47:57;;;;;;;14.50;8.60;;;;;;;0.04;84.29;100529.41;5032719;28;20032;-83
2024/01/20 10:50:24;;;;;;;19.65;12.07;;;;;;;0.14;83.73;100534.66;5032679;28;20044;-82
2024/01/20 10:52:50;;;;;;;15.70;7.82;;;;;;;0.17;83.92;100541.50;5015197;28;20030;-83
2024/01/20 10:55:18;;;;;;;17.33;7.28;;;;;;;-0.05;83.75;100520.78;5033492;28;20040;-83
2024/01/20 10:57:44;;;;;;;11.35;6.25;;;;;;;-0.07;83.48;100507.13;5036174;28;20025;-83
2024/01/20 11:00:11;;;;;;;15.95;9.68;;;;;;;-0.02;83.44;100525.09;5028843;28;20077;-83
2024/01/20 11:02:37;;;;;;;13.55;7.20;;;;;;;0.08;83.22;100537.16;5013071;28;20069;-83
2024/01/20 11:05:25;;;;;;;15.32;8.48;;;;;;;-0.05;83.56;100497.75;5016330;28;20025;-83
2024/01/20 11:08:14;;;;;;;18.70;8.05;;;;;;;-0.06;83.00;100490.91;5016471;28;20020;-83
2024/01/20 11:10:41;;;;;;;16.75;7.80;;;;;;;0.11;82.95;100519.25;4998086;28;20563;-83